Nolensville, Tennessee
Current Conditions -  °F | °C
As of 4:53 AM on Sunday 26 Oct 2014 (Local Time) from KBNA Reporting Station
Haze Haze  
Wind Chill: 54°   Ceiling: Unl
Heat Index: 54°   Visibility: 0.75mi
Dew Point: 54°   Wind: 3mph
Humidity: 100%   Direction: 190°S
Pressure: 30.02"   Gusts: NA
Location:  35.95°N, 86.67°W
Report Text: KBNA 260953Z 19003KT 3/4SM R02L/0800V1600FT BR FEW002 12/12 A3002 RMK AO2 SLP162 T01220122
Loading
Personal Weather Stations






























Interactive Weather Map
Tropical Storm Tracking
New forecast layout! Learn more

10-Day Weather Forecast

Advertisements
Track Severe Weather on mobile